createdAt,value
2019-02-24T00:00:04.793Z,2.17
2019-02-24T00:02:34.352Z,2.17
2019-02-24T00:05:03.916Z,2.40
2019-02-24T00:07:33.529Z,2.37
2019-02-24T00:10:03.055Z,2.47
2019-02-24T00:12:32.712Z,1.70
2019-02-24T00:15:02.249Z,2.50
2019-02-24T00:17:31.806Z,3.20
2019-02-24T00:20:01.463Z,3.37
2019-02-24T00:22:30.985Z,3.17
2019-02-24T00:25:00.578Z,2.57
2019-02-24T00:27:30.238Z,2.47
2019-02-24T00:29:59.802Z,1.83
2019-02-24T00:32:29.322Z,2.10
2019-02-24T00:34:58.873Z,2.30
2019-02-24T00:37:28.415Z,2.23
2019-02-24T00:39:58.121Z,1.50
2019-02-24T00:42:27.632Z,2.23
2019-02-24T00:44:57.235Z,1.80
2019-02-24T00:47:26.790Z,2.40
2019-02-24T00:49:56.328Z,2.20
2019-02-24T00:52:25.866Z,1.97
2019-02-24T00:54:55.524Z,2.30
2019-02-24T00:57:25.076Z,2.30
2019-02-24T00:59:54.628Z,2.30
2019-02-24T01:02:24.454Z,2.27
2019-02-24T01:04:53.970Z,2.40
2019-02-24T01:07:23.574Z,2.57
2019-02-24T01:09:53.115Z,2.87
2019-02-24T01:12:22.845Z,2.70
2019-02-24T01:14:52.392Z,2.10
2019-02-24T01:17:21.949Z,2.43
2019-02-24T01:19:51.635Z,1.90
2019-02-24T01:22:21.238Z,2.17
2019-02-24T01:24:50.870Z,2.70
2019-02-24T01:27:20.408Z,3.60
2019-02-24T01:29:49.971Z,3.73
2019-02-24T01:32:19.521Z,5.00
2019-02-24T01:34:49.150Z,5.40
2019-02-24T01:37:18.674Z,5.50
2019-02-24T01:39:48.192Z,7.40
2019-02-24T01:42:17.745Z,5.80
2019-02-24T01:44:47.293Z,5.77
2019-02-24T01:47:16.907Z,5.60
2019-02-24T01:49:46.482Z,5.50
2019-02-24T01:52:16.022Z,4.60
2019-02-24T01:54:45.634Z,5.63
2019-02-24T01:57:15.207Z,6.20
2019-02-24T01:59:44.833Z,6.30
2019-02-24T02:02:14.418Z,5.30
2019-02-24T02:04:43.980Z,5.70
2019-02-24T02:07:13.505Z,4.73
2019-02-24T02:09:43.148Z,5.73
2019-02-24T02:12:12.694Z,5.87
2019-02-24T02:14:42.354Z,7.67
2019-02-24T02:17:11.959Z,8.20
2019-02-24T02:19:41.520Z,7.37
2019-02-24T02:22:11.079Z,8.90
2019-02-24T02:24:40.708Z,6.33
2019-02-24T02:27:10.231Z,5.27
2019-02-24T02:29:39.793Z,5.93
2019-02-24T02:32:09.325Z,5.27
2019-02-24T02:34:38.859Z,4.63
2019-02-24T02:37:08.445Z,6.00
2019-02-24T02:39:38.257Z,5.20
2019-02-24T02:42:07.823Z,5.27
2019-02-24T02:44:37.390Z,5.97
2019-02-24T02:47:07.044Z,4.80
2019-02-24T02:49:36.677Z,5.40
2019-02-24T02:52:06.211Z,4.80
2019-02-24T02:54:35.771Z,4.60
2019-02-24T02:57:05.304Z,4.07
2019-02-24T02:59:34.840Z,3.40
2019-02-24T03:02:04.362Z,4.70
2019-02-24T03:04:34.027Z,3.53
2019-02-24T03:07:25.402Z,3.50
2019-02-24T03:09:54.985Z,4.90
2019-02-24T03:12:24.510Z,4.00
2019-02-24T03:14:54.046Z,4.17
2019-02-24T03:17:24.482Z,4.27
2019-02-24T03:19:54.019Z,3.90
2019-02-24T03:22:23.544Z,4.03
2019-02-24T03:24:53.115Z,3.90
2019-02-24T03:27:22.786Z,4.20
2019-02-24T03:29:52.326Z,5.30
2019-02-24T03:32:21.903Z,4.90
2019-02-24T03:34:51.458Z,4.87
2019-02-24T03:37:21.024Z,5.30
2019-02-24T03:39:50.575Z,5.30
2019-02-24T03:42:20.103Z,4.53
2019-02-24T03:44:49.638Z,5.57
2019-02-24T03:47:19.183Z,5.10
2019-02-24T03:49:48.776Z,4.40
2019-02-24T03:52:18.304Z,4.13
2019-02-24T03:54:47.858Z,5.50
2019-02-24T03:57:17.405Z,5.27
2019-02-24T03:59:47.043Z,6.40
2019-02-24T04:02:16.613Z,6.17
2019-02-24T04:04:46.182Z,5.90
2019-02-24T04:07:15.730Z,8.70
2019-02-24T04:09:45.262Z,6.57
2019-02-24T04:12:14.811Z,4.10
2019-02-24T04:14:44.367Z,5.60
2019-02-24T04:17:13.920Z,4.80
2019-02-24T04:19:43.512Z,5.27
2019-02-24T04:22:13.127Z,5.10
2019-02-24T04:24:42.654Z,4.17
2019-02-24T04:27:12.241Z,6.07
2019-02-24T04:29:41.823Z,5.10
2019-02-24T04:32:11.501Z,3.83
2019-02-24T04:34:41.129Z,4.27
2019-02-24T04:37:10.657Z,4.33
2019-02-24T04:39:40.202Z,6.53
2019-02-24T04:42:09.765Z,4.37
2019-02-24T04:44:39.304Z,4.50
2019-02-24T04:47:08.946Z,4.60
2019-02-24T04:49:38.484Z,3.80
2019-02-24T04:52:08.011Z,5.13
2019-02-24T04:54:37.574Z,4.30
2019-02-24T04:57:07.134Z,3.70
2019-02-24T04:59:36.766Z,5.93
2019-02-24T05:02:06.329Z,7.43
2019-02-24T05:04:35.988Z,5.73
2019-02-24T05:07:05.517Z,4.90
2019-02-24T05:09:35.068Z,3.70
2019-02-24T05:12:04.615Z,3.93
2019-02-24T05:14:34.163Z,4.13
2019-02-24T05:17:03.763Z,6.70
2019-02-24T05:19:33.411Z,5.23
2019-02-24T05:22:03.190Z,7.07
2019-02-24T05:24:32.763Z,6.80
2019-02-24T05:27:02.397Z,7.70
2019-02-24T05:29:31.927Z,5.77
2019-02-24T05:32:01.478Z,6.97
2019-02-24T05:34:31.019Z,5.70
2019-02-24T05:37:00.575Z,5.53
2019-02-24T05:39:30.149Z,6.40
2019-02-24T05:41:59.687Z,6.10
2019-02-24T05:44:29.280Z,6.80
2019-02-24T05:46:58.804Z,5.33
2019-02-24T05:49:28.463Z,4.13
2019-02-24T05:51:58.105Z,4.80
2019-02-24T05:54:27.722Z,4.83
2019-02-24T05:56:57.320Z,5.63
2019-02-24T05:59:26.940Z,7.27
2019-02-24T06:01:56.463Z,6.77
2019-02-24T06:04:26.078Z,8.60
2019-02-24T06:06:55.639Z,11.03
2019-02-24T06:09:25.289Z,9.10
2019-02-24T06:11:55.115Z,9.67
2019-02-24T06:14:24.659Z,7.83
2019-02-24T06:16:54.267Z,8.20
2019-02-24T06:19:23.969Z,9.17
2019-02-24T06:21:53.523Z,7.60
2019-02-24T06:24:23.120Z,7.53
2019-02-24T06:26:52.650Z,7.80
2019-02-24T06:29:22.195Z,9.10
2019-02-24T06:31:51.741Z,7.87
2019-02-24T06:34:21.274Z,8.73
2019-02-24T06:36:50.862Z,9.90
2019-02-24T06:39:20.472Z,9.13
2019-02-24T06:41:50.081Z,7.13
2019-02-24T06:44:19.666Z,9.90
2019-02-24T06:46:49.249Z,8.00
2019-02-24T06:49:18.781Z,5.87
2019-02-24T06:51:48.313Z,9.90
2019-02-24T06:54:17.891Z,15.00
2019-02-24T06:56:47.505Z,11.70
2019-02-24T06:59:17.052Z,10.93
2019-02-24T07:01:46.582Z,10.50
2019-02-24T07:04:16.137Z,9.27
2019-02-24T07:06:45.695Z,5.20
2019-02-24T07:09:15.245Z,7.00
2019-02-24T07:11:44.824Z,6.97
2019-02-24T07:14:14.351Z,5.40
2019-02-24T07:16:43.909Z,34.60
2019-02-24T07:19:13.457Z,7.43
2019-02-24T07:21:43.024Z,7.47
2019-02-24T07:24:12.570Z,6.60
2019-02-24T07:26:42.122Z,8.27
2019-02-24T07:29:11.696Z,11.10
2019-02-24T07:31:41.222Z,10.50
2019-02-24T07:34:10.778Z,9.07
2019-02-24T07:36:40.328Z,5.37
2019-02-24T07:39:09.877Z,4.50
2019-02-24T07:41:39.429Z,7.30
2019-02-24T07:44:08.971Z,5.30
2019-02-24T07:46:38.525Z,5.00
2019-02-24T07:49:08.097Z,6.37
2019-02-24T07:51:37.653Z,9.80
2019-02-24T07:54:07.242Z,5.90
2019-02-24T07:56:37.392Z,7.37
2019-02-24T07:59:07.009Z,8.60
2019-02-24T08:01:36.637Z,6.20
2019-02-24T08:04:06.193Z,7.20
2019-02-24T08:06:35.862Z,5.53
2019-02-24T08:09:05.422Z,8.60
2019-02-24T08:11:34.975Z,5.83
2019-02-24T08:14:04.583Z,6.70
2019-02-24T08:16:34.132Z,11.73
2019-02-24T08:19:03.719Z,8.80
2019-02-24T08:21:33.281Z,10.33
2019-02-24T08:24:02.872Z,9.23
2019-02-24T08:26:32.405Z,12.60
2019-02-24T08:29:01.959Z,13.10
2019-02-24T08:31:31.538Z,9.97
2019-02-24T08:34:01.063Z,8.27
2019-02-24T08:36:30.582Z,13.67
2019-02-24T08:39:00.158Z,8.77
2019-02-24T08:41:29.756Z,5.33
2019-02-24T08:43:59.340Z,7.67
2019-02-24T08:46:28.906Z,5.60
2019-02-24T08:48:58.515Z,8.57
2019-02-24T08:51:28.184Z,8.07
2019-02-24T08:53:57.889Z,6.67
2019-02-24T08:56:27.506Z,11.33
2019-02-24T08:58:57.137Z,9.20
2019-02-24T09:01:26.711Z,10.20
2019-02-24T09:03:56.354Z,6.33
2019-02-24T09:06:25.960Z,12.27
2019-02-24T09:08:55.505Z,25.20
2019-02-24T09:11:25.140Z,32.80
2019-02-24T09:13:54.755Z,21.63
2019-02-24T09:16:24.367Z,9.07
2019-02-24T09:18:53.942Z,6.70
2019-02-24T09:21:23.614Z,12.30
2019-02-24T09:23:53.228Z,14.97
2019-02-24T09:26:22.925Z,6.53
2019-02-24T09:28:52.448Z,14.40
2019-02-24T09:31:22.122Z,11.63
2019-02-24T09:33:51.787Z,12.13
2019-02-24T09:36:21.387Z,7.57
2019-02-24T09:38:50.991Z,7.60
2019-02-24T09:41:20.737Z,10.50
2019-02-24T09:43:50.359Z,12.97
2019-02-24T09:46:20.067Z,13.20
2019-02-24T09:48:49.630Z,7.00
2019-02-24T09:51:19.187Z,8.20
2019-02-24T09:53:48.885Z,9.13
2019-02-24T09:56:18.521Z,9.43
2019-02-24T09:58:48.203Z,9.70
2019-02-24T10:01:17.809Z,6.90
2019-02-24T10:03:47.405Z,6.07
2019-02-24T10:06:16.980Z,7.13
2019-02-24T10:08:46.702Z,8.97
2019-02-24T10:11:16.454Z,9.40
2019-02-24T10:13:45.989Z,9.10
2019-02-24T10:16:15.698Z,7.47
2019-02-24T10:18:45.372Z,6.40
2019-02-24T10:21:15.012Z,6.20
2019-02-24T10:23:44.548Z,9.13
2019-02-24T10:26:14.225Z,9.90
2019-02-24T10:28:44.001Z,10.40
2019-02-24T10:31:19.868Z,14.80
2019-02-24T10:33:45.053Z,11.77
2019-02-24T10:36:14.608Z,13.10
2019-02-24T10:38:44.278Z,13.37
2019-02-24T10:41:13.811Z,16.20
2019-02-24T10:43:43.539Z,19.00
2019-02-24T10:46:13.114Z,13.80
2019-02-24T10:48:42.647Z,11.00
2019-02-24T10:51:12.266Z,13.60
2019-02-24T10:53:41.807Z,13.60
2019-02-24T10:56:12.496Z,6.80
2019-02-24T10:58:42.049Z,10.60
2019-02-24T11:01:11.597Z,13.07
2019-02-24T11:03:41.128Z,9.10
2019-02-24T11:06:10.761Z,11.60
2019-02-24T11:08:40.322Z,7.80
2019-02-24T11:11:09.997Z,9.90
2019-02-24T11:13:39.526Z,10.67
2019-02-24T11:16:09.149Z,11.27
2019-02-24T11:18:38.881Z,8.70
2019-02-24T11:21:08.490Z,10.00
2019-02-24T11:23:38.173Z,12.33
2019-02-24T11:26:07.702Z,12.20
2019-02-24T11:28:37.411Z,12.17
2019-02-24T11:31:06.950Z,9.57
2019-02-24T11:33:36.518Z,12.03
2019-02-24T11:36:06.076Z,10.70
2019-02-24T11:38:35.606Z,9.13
2019-02-24T11:41:05.147Z,8.20
2019-02-24T11:43:34.795Z,9.60
2019-02-24T11:46:05.259Z,20.17
2019-02-24T11:48:34.830Z,11.10
2019-02-24T11:51:04.484Z,9.83
2019-02-24T11:53:34.051Z,20.17
2019-02-24T11:56:03.606Z,15.40
2019-02-24T11:58:33.192Z,9.00
2019-02-24T12:01:02.896Z,12.90
2019-02-24T12:03:32.440Z,13.93
2019-02-24T12:06:02.034Z,12.80
2019-02-24T12:08:31.795Z,10.20
2019-02-24T12:11:01.405Z,13.60
2019-02-24T12:13:31.058Z,11.93
2019-02-24T12:16:00.656Z,7.23
2019-02-24T12:18:30.317Z,13.00
2019-02-24T12:20:59.868Z,10.20
2019-02-24T12:23:29.419Z,9.27
2019-02-24T12:25:58.987Z,8.67
2019-02-24T12:28:28.557Z,16.53
2019-02-24T12:30:58.271Z,11.13
2019-02-24T12:33:27.813Z,10.83
2019-02-24T12:35:57.351Z,15.67
2019-02-24T12:38:27.003Z,17.50
2019-02-24T12:40:56.549Z,12.57
2019-02-24T12:43:26.242Z,10.60
2019-02-24T12:45:55.809Z,10.60
2019-02-24T12:48:25.337Z,10.40
2019-02-24T12:50:54.893Z,10.47
2019-02-24T12:53:24.527Z,19.70
2019-02-24T12:55:54.097Z,10.63
2019-02-24T12:58:23.639Z,9.00
2019-02-24T13:00:53.576Z,5.37
2019-02-24T13:03:24.195Z,9.10
2019-02-24T13:05:53.932Z,10.80
2019-02-24T13:08:23.491Z,7.83
2019-02-24T13:10:53.122Z,9.23
2019-02-24T13:13:22.645Z,7.63
2019-02-24T13:15:52.276Z,14.20
2019-02-24T13:18:21.880Z,11.23
2019-02-24T13:20:51.672Z,13.07
2019-02-24T13:23:21.228Z,11.60
2019-02-24T13:25:50.795Z,16.40
2019-02-24T13:28:20.340Z,20.37
2019-02-24T13:30:49.886Z,18.83
2019-02-24T13:33:19.446Z,12.03
2019-02-24T13:35:48.998Z,11.07
2019-02-24T13:38:18.546Z,12.80
2019-02-24T13:40:48.134Z,10.63
2019-02-24T13:43:17.683Z,18.90
2019-02-24T13:45:47.234Z,13.40
2019-02-24T13:48:16.772Z,10.20
2019-02-24T13:50:46.436Z,10.17
2019-02-24T13:53:15.980Z,16.67
2019-02-24T13:55:45.598Z,8.50
2019-02-24T13:58:15.263Z,14.20
2019-02-24T14:00:44.899Z,10.07
2019-02-24T14:03:14.534Z,15.57
2019-02-24T14:05:44.111Z,17.63
2019-02-24T14:08:13.769Z,17.50
2019-02-24T14:10:43.408Z,12.27
2019-02-24T14:13:12.970Z,12.40
2019-02-24T14:15:42.528Z,13.27
2019-02-24T14:18:12.107Z,16.23
2019-02-24T14:20:41.702Z,19.63
2019-02-24T14:23:11.315Z,11.70
2019-02-24T14:25:40.925Z,11.20
2019-02-24T14:28:10.565Z,12.43
2019-02-24T14:30:40.147Z,17.90
2019-02-24T14:33:09.872Z,14.47
2019-02-24T14:35:39.424Z,11.40
2019-02-24T14:38:09.063Z,15.03
2019-02-24T14:40:38.655Z,16.50
2019-02-24T14:43:08.264Z,14.10
2019-02-24T14:45:37.804Z,13.80
2019-02-24T14:48:07.351Z,15.07
2019-02-24T14:50:36.903Z,13.90
2019-02-24T14:53:06.448Z,23.53
2019-02-24T14:55:36.024Z,13.87
2019-02-24T14:58:05.583Z,10.90
2019-02-24T15:00:35.254Z,11.80
2019-02-24T15:03:04.841Z,15.20
2019-02-24T15:05:34.588Z,15.57
2019-02-24T15:08:04.141Z,11.50
2019-02-24T15:10:33.733Z,9.43
2019-02-24T15:13:03.296Z,12.00
2019-02-24T15:15:33.521Z,12.47
2019-02-24T15:18:03.305Z,15.03
2019-02-24T15:20:32.906Z,17.20
2019-02-24T15:23:02.463Z,16.70
2019-02-24T15:25:32.083Z,16.70
2019-02-24T15:28:01.633Z,15.17
2019-02-24T15:30:32.160Z,10.80
2019-02-24T15:33:01.718Z,12.13
2019-02-24T15:35:31.253Z,14.37
2019-02-24T15:38:00.814Z,11.80
2019-02-24T15:40:30.498Z,14.17
2019-02-24T15:43:00.107Z,13.30
2019-02-24T15:45:29.638Z,15.63
2019-02-24T15:47:59.230Z,13.90
2019-02-24T15:50:28.818Z,13.57
2019-02-24T15:52:58.414Z,15.17
2019-02-24T15:55:28.002Z,12.23
2019-02-24T15:57:57.568Z,16.27
2019-02-24T16:00:27.158Z,18.47
2019-02-24T16:03:01.600Z,19.90
2019-02-24T16:05:28.204Z,16.37
2019-02-24T16:07:57.814Z,15.77
2019-02-24T16:10:27.354Z,15.20
2019-02-24T16:12:56.980Z,15.80
2019-02-24T16:15:26.552Z,16.80
2019-02-24T16:17:56.115Z,22.40
2019-02-24T16:20:26.365Z,18.03
2019-02-24T16:22:56.031Z,16.30
2019-02-24T16:25:25.684Z,16.10
2019-02-24T16:27:55.497Z,15.10
2019-02-24T16:30:25.093Z,13.20
2019-02-24T16:32:54.629Z,22.93
2019-02-24T16:35:24.242Z,23.03
2019-02-24T16:37:53.843Z,23.03
2019-02-24T16:40:23.525Z,14.27
2019-02-24T16:42:53.264Z,23.80
2019-02-24T16:45:22.908Z,17.13
2019-02-24T16:47:52.463Z,16.60
2019-02-24T16:50:22.113Z,23.73
2019-02-24T16:52:51.806Z,32.30
2019-02-24T16:55:21.392Z,26.17
2019-02-24T16:57:51.027Z,27.30
2019-02-24T17:00:20.890Z,29.37
2019-02-24T17:02:50.455Z,29.07
2019-02-24T17:05:20.059Z,27.93
2019-02-24T17:07:49.682Z,26.53
2019-02-24T17:10:19.840Z,29.90
2019-02-24T17:12:49.484Z,21.90
2019-02-24T17:15:19.062Z,26.47
2019-02-24T17:17:49.118Z,38.37
2019-02-24T17:20:19.229Z,41.70
2019-02-24T17:22:48.841Z,56.53
2019-02-24T17:25:21.318Z,33.80
2019-02-24T17:27:53.919Z,41.00
2019-02-24T17:30:24.107Z,31.50
2019-02-24T17:32:53.906Z,32.17
2019-02-24T17:35:23.800Z,32.23
2019-02-24T17:37:53.467Z,36.23
2019-02-24T17:40:23.564Z,60.10
2019-02-24T17:42:53.211Z,27.90
2019-02-24T17:45:23.041Z,30.30
2019-02-24T17:47:55.891Z,28.77
2019-02-24T17:50:25.611Z,24.20
2019-02-24T17:52:55.380Z,23.57
2019-02-24T17:55:25.548Z,22.40
2019-02-24T17:57:55.207Z,23.20
2019-02-24T18:00:30.498Z,26.77
2019-02-24T18:03:00.162Z,23.90
2019-02-24T18:05:29.853Z,39.03
2019-02-24T18:07:59.472Z,23.60
2019-02-24T18:10:29.119Z,21.80
2019-02-24T18:12:58.734Z,18.20
2019-02-24T18:15:28.330Z,16.80
2019-02-24T18:17:57.873Z,18.10
2019-02-24T18:20:27.423Z,22.50
2019-02-24T18:22:57.013Z,23.20
2019-02-24T18:25:26.650Z,20.80
2019-02-24T18:27:56.232Z,23.57
2019-02-24T18:30:25.823Z,21.90
2019-02-24T18:32:55.391Z,20.63
2019-02-24T18:35:25.015Z,22.60
2019-02-24T18:37:54.768Z,24.60
2019-02-24T18:40:24.351Z,24.63
2019-02-24T18:43:00.147Z,28.50
2019-02-24T18:45:25.238Z,33.30
2019-02-24T18:47:54.853Z,30.27
2019-02-24T18:50:24.473Z,32.10
2019-02-24T18:52:54.061Z,47.77
2019-02-24T18:55:23.762Z,41.50
2019-02-24T18:57:53.414Z,29.93
2019-02-24T19:00:23.039Z,21.10
2019-02-24T19:02:54.815Z,23.53
2019-02-24T19:05:23.941Z,22.67
2019-02-24T19:07:53.490Z,23.63
2019-02-24T19:10:23.057Z,27.23
2019-02-24T19:12:52.593Z,23.97
2019-02-24T19:15:22.176Z,27.93
2019-02-24T19:17:51.742Z,28.80
2019-02-24T19:20:21.377Z,30.73
2019-02-24T19:22:50.930Z,30.10
2019-02-24T19:25:20.505Z,30.77
2019-02-24T19:27:50.055Z,32.93
2019-02-24T19:30:19.682Z,26.97
2019-02-24T19:32:49.255Z,24.90
2019-02-24T19:35:18.829Z,22.17
2019-02-24T19:37:48.389Z,21.60
2019-02-24T19:40:18.173Z,18.63
2019-02-24T19:42:47.727Z,23.50
2019-02-24T19:45:17.895Z,22.63
2019-02-24T19:47:47.453Z,19.83
2019-02-24T19:50:17.459Z,20.27
2019-02-24T19:52:47.075Z,19.67
2019-02-24T19:55:16.645Z,20.67
2019-02-24T19:57:46.202Z,20.37
2019-02-24T20:00:18.693Z,21.47
2019-02-24T20:02:48.373Z,25.60
2019-02-24T20:05:18.044Z,23.73
2019-02-24T20:07:47.742Z,31.00
2019-02-24T20:10:18.901Z,30.27
2019-02-24T20:12:48.469Z,27.70
2019-02-24T20:15:18.153Z,25.90
2019-02-24T20:17:47.724Z,24.13
2019-02-24T20:20:17.395Z,23.87
2019-02-24T20:22:47.011Z,36.50
2019-02-24T20:25:16.697Z,37.57
2019-02-24T20:27:46.240Z,53.87
2019-02-24T20:30:18.777Z,76.53
2019-02-24T20:32:48.582Z,127.83
2019-02-24T20:35:18.173Z,169.83
2019-02-24T20:37:47.881Z,104.30
2019-02-24T20:40:17.435Z,66.57
2019-02-24T20:42:47.021Z,60.97
2019-02-24T20:45:17.603Z,49.70
2019-02-24T20:47:47.192Z,42.83
2019-02-24T20:50:17.826Z,41.23
2019-02-24T20:52:47.402Z,54.00
2019-02-24T20:55:17.090Z,44.27
2019-02-24T20:57:47.260Z,31.07
2019-02-24T21:00:22.860Z,24.03
2019-02-24T21:02:52.431Z,29.27
2019-02-24T21:05:21.978Z,73.70
2019-02-24T21:07:51.600Z,40.30
2019-02-24T21:10:21.179Z,44.00
2019-02-24T21:12:50.741Z,42.77
2019-02-24T21:15:20.330Z,30.27
2019-02-24T21:17:49.900Z,35.37
2019-02-24T21:20:21.411Z,29.40
2019-02-24T21:22:51.089Z,20.03
2019-02-24T21:25:20.688Z,23.90
2019-02-24T21:27:50.296Z,23.80
2019-02-24T21:30:19.941Z,25.70
2019-02-24T21:32:49.499Z,26.60
2019-02-24T21:35:19.119Z,20.90
2019-02-24T21:37:48.719Z,17.10
2019-02-24T21:40:18.463Z,15.43
2019-02-24T21:42:48.013Z,13.03
2019-02-24T21:45:18.746Z,16.03
2019-02-24T21:47:48.304Z,17.67
2019-02-24T21:50:17.998Z,23.70
2019-02-24T21:52:47.530Z,23.43
2019-02-24T21:55:17.138Z,18.27
2019-02-24T21:57:46.698Z,20.07
2019-02-24T22:00:21.119Z,17.53
2019-02-24T22:02:50.643Z,18.50
2019-02-24T22:05:20.193Z,22.47
2019-02-24T22:07:49.726Z,16.40
2019-02-24T22:10:19.343Z,17.93
2019-02-24T22:12:48.993Z,20.87
2019-02-24T22:15:19.038Z,21.30
2019-02-24T22:17:48.603Z,35.67
2019-02-24T22:20:20.140Z,18.10
2019-02-24T22:22:49.785Z,15.33
2019-02-24T22:25:19.488Z,55.90
2019-02-24T22:27:49.043Z,16.70
2019-02-24T22:30:18.811Z,21.00
2019-02-24T22:32:48.511Z,16.50
2019-02-24T22:35:18.046Z,13.43
2019-02-24T22:37:47.633Z,13.73
2019-02-24T22:40:17.349Z,12.60
2019-02-24T22:42:46.877Z,18.80
2019-02-24T22:45:17.260Z,19.10
2019-02-24T22:47:46.987Z,28.07
2019-02-24T22:50:16.632Z,15.53
2019-02-24T22:52:46.232Z,15.77
2019-02-24T22:55:15.827Z,15.87
2019-02-24T22:57:45.421Z,15.87
2019-02-24T23:00:50.319Z,13.97
2019-02-24T23:03:19.963Z,13.60
2019-02-24T23:05:49.505Z,13.53
2019-02-24T23:08:19.049Z,14.80
2019-02-24T23:10:48.743Z,14.40
2019-02-24T23:13:18.281Z,15.03
2019-02-24T23:15:47.836Z,18.50
2019-02-24T23:18:17.382Z,25.80
2019-02-24T23:20:47.099Z,21.57
2019-02-24T23:23:16.640Z,15.40
2019-02-24T23:25:46.212Z,17.93
2019-02-24T23:28:15.896Z,17.70
2019-02-24T23:30:45.607Z,17.97
2019-02-24T23:33:15.316Z,16.70
2019-02-24T23:35:44.938Z,16.83
2019-02-24T23:38:14.614Z,15.70
2019-02-24T23:40:44.171Z,18.10
2019-02-24T23:43:13.794Z,17.30
2019-02-24T23:45:43.383Z,18.30
2019-02-24T23:48:13.002Z,16.70
